createdAt,value
2022-12-15T00:00:25.321Z,11.53
2022-12-15T00:03:11.601Z,13.73
2022-12-15T00:05:59.029Z,12.95
2022-12-15T00:08:45.101Z,13.27
2022-12-15T00:11:31.423Z,12.53
2022-12-15T00:14:17.751Z,11.50
2022-12-15T00:17:04.260Z,13.73
2022-12-15T00:19:50.339Z,12.93
2022-12-15T00:22:36.544Z,11.20
2022-12-15T00:25:22.847Z,11.70
2022-12-15T00:28:09.399Z,9.77
2022-12-15T00:31:02.103Z,10.53
2022-12-15T00:33:49.188Z,15.60
2022-12-15T00:36:35.470Z,15.17
2022-12-15T00:39:04.404Z,15.07
2022-12-15T00:41:32.180Z,15.20
2022-12-15T00:44:00.126Z,16.02
2022-12-15T00:49:33.473Z,13.48
2022-12-15T00:52:19.714Z,14.87
2022-12-15T00:55:05.952Z,14.17
2022-12-15T00:57:52.418Z,15.47
2022-12-15T01:00:40.197Z,13.10
2022-12-15T01:03:40.178Z,13.17
2022-12-15T01:06:33.432Z,14.03
2022-12-15T01:09:20.248Z,14.10
2022-12-15T01:12:06.568Z,13.52
2022-12-15T01:14:53.883Z,13.00
2022-12-15T01:17:40.401Z,12.60
2022-12-15T01:20:21.687Z,13.20
2022-12-15T01:22:54.627Z,12.73
2022-12-15T01:25:25.865Z,12.90
2022-12-15T01:27:54.910Z,12.87
2022-12-15T01:30:25.352Z,12.23
2022-12-15T01:32:53.812Z,13.23
2022-12-15T01:35:22.180Z,12.83
2022-12-15T01:37:50.382Z,10.97
2022-12-15T01:40:38.791Z,11.90
2022-12-15T01:43:16.258Z,11.90
2022-12-15T01:46:11.860Z,12.45
2022-12-15T01:48:48.628Z,12.93
2022-12-15T01:51:40.347Z,11.83
2022-12-15T01:54:23.512Z,13.40
2022-12-15T01:56:55.618Z,12.57
2022-12-15T01:59:30.021Z,12.37
2022-12-15T02:01:57.928Z,11.83
2022-12-15T02:04:25.938Z,13.30
2022-12-15T02:12:11.906Z,13.63
2022-12-15T02:15:04.265Z,12.90
2022-12-15T02:18:05.191Z,12.50
2022-12-15T02:20:53.560Z,12.93
2022-12-15T02:23:36.401Z,13.27
2022-12-15T02:26:25.831Z,11.87
2022-12-15T02:29:10.989Z,11.87
2022-12-15T02:31:50.065Z,11.40
2022-12-15T02:34:43.347Z,11.17
2022-12-15T02:37:20.828Z,12.07
2022-12-15T02:39:48.796Z,11.85
2022-12-15T02:42:17.259Z,11.03
2022-12-15T02:44:50.270Z,9.75
2022-12-15T02:47:22.326Z,13.43
2022-12-15T02:50:43.270Z,11.27
2022-12-15T02:53:21.362Z,11.93
2022-12-15T02:56:33.944Z,13.47
2022-12-15T02:59:25.763Z,13.20
2022-12-15T03:02:03.161Z,12.53
2022-12-15T03:04:33.925Z,12.95
2022-12-15T03:07:05.669Z,11.53
2022-12-15T03:09:34.542Z,12.70
2022-12-15T03:12:02.262Z,12.77
2022-12-15T03:16:58.084Z,12.83
2022-12-15T03:19:27.354Z,12.47
2022-12-15T03:24:24.042Z,11.07
2022-12-15T03:26:52.064Z,11.47
2022-12-15T03:29:20.392Z,10.67
2022-12-15T03:31:49.948Z,11.37
2022-12-15T03:34:18.191Z,12.43
2022-12-15T03:36:46.245Z,12.80
2022-12-15T03:39:14.229Z,13.13
2022-12-15T03:41:42.366Z,14.03
2022-12-15T03:44:10.163Z,12.40
2022-12-15T03:46:39.261Z,12.18
2022-12-15T03:49:07.285Z,13.57
2022-12-15T03:51:35.338Z,12.50
2022-12-15T03:54:03.054Z,13.13
2022-12-15T03:56:30.835Z,12.57
2022-12-15T03:58:58.534Z,12.45
2022-12-15T04:01:31.664Z,12.07
2022-12-15T04:04:01.664Z,12.00
2022-12-15T04:06:30.893Z,11.97
2022-12-15T04:08:58.604Z,12.60
2022-12-15T04:11:26.489Z,13.10
2022-12-15T04:13:54.239Z,11.15
2022-12-15T04:19:09.584Z,10.82
2022-12-15T04:21:37.204Z,10.07
2022-12-15T04:24:24.949Z,12.43
2022-12-15T04:27:12.336Z,12.27
2022-12-15T04:29:58.416Z,13.60
2022-12-15T04:32:44.701Z,13.57
2022-12-15T04:35:37.218Z,13.63
2022-12-15T04:38:23.393Z,15.15
2022-12-15T04:41:10.767Z,13.23
2022-12-15T04:43:58.637Z,13.23
2022-12-15T04:46:45.209Z,13.02
2022-12-15T04:49:31.746Z,14.10
2022-12-15T04:52:17.874Z,9.43
2022-12-15T04:55:04.504Z,11.80
2022-12-15T04:57:50.650Z,14.30
2022-12-15T05:00:37.797Z,12.60
2022-12-15T05:03:25.751Z,13.07
2022-12-15T05:06:12.442Z,14.37
2022-12-15T05:08:58.471Z,13.48
2022-12-15T05:11:44.628Z,11.90
2022-12-15T05:14:31.546Z,12.90
2022-12-15T05:17:17.770Z,13.32
2022-12-15T05:20:04.435Z,11.13
2022-12-15T05:22:51.383Z,12.52
2022-12-15T05:25:38.585Z,11.43
2022-12-15T05:28:25.952Z,11.73
2022-12-15T05:31:12.254Z,13.10
2022-12-15T05:33:41.824Z,12.87
2022-12-15T05:36:09.712Z,12.60
2022-12-15T05:41:05.110Z,10.85
2022-12-15T05:43:33.517Z,12.60
2022-12-15T05:46:05.079Z,13.57
2022-12-15T05:48:32.849Z,11.77
2022-12-15T05:51:10.406Z,11.85
2022-12-15T05:56:12.517Z,11.70
2022-12-15T05:58:45.083Z,12.97
2022-12-15T06:01:16.558Z,12.97
2022-12-15T06:03:44.736Z,15.40
2022-12-15T06:06:13.452Z,13.87
2022-12-15T06:08:42.931Z,14.63
2022-12-15T06:11:13.345Z,13.50
2022-12-15T06:13:41.583Z,14.37
2022-12-15T06:16:15.574Z,14.07
2022-12-15T06:18:50.172Z,13.60
2022-12-15T06:21:20.251Z,14.03
2022-12-15T06:23:48.216Z,12.57
2022-12-15T06:26:23.283Z,11.63
2022-12-15T06:28:51.922Z,13.27
2022-12-15T06:31:25.546Z,13.03
2022-12-15T06:34:01.070Z,12.53
2022-12-15T06:36:31.057Z,11.63
2022-12-15T06:39:01.023Z,13.73
2022-12-15T06:41:32.766Z,11.63
2022-12-15T06:44:01.250Z,11.73
2022-12-15T06:46:31.275Z,12.03
2022-12-15T06:48:59.673Z,11.77
2022-12-15T06:51:28.378Z,11.30
2022-12-15T06:53:56.702Z,12.67
2022-12-15T06:56:34.830Z,11.97
2022-12-15T06:59:05.185Z,12.93
2022-12-15T07:01:33.906Z,14.10
2022-12-15T07:04:04.520Z,14.70
2022-12-15T07:06:36.406Z,13.30
2022-12-15T07:09:07.586Z,12.67
2022-12-15T07:11:35.421Z,13.40
2022-12-15T07:16:31.266Z,14.10
2022-12-15T07:18:59.023Z,13.27
2022-12-15T07:21:26.739Z,10.95
2022-12-15T07:26:27.141Z,13.10
2022-12-15T07:28:56.335Z,13.07
2022-12-15T07:31:25.778Z,12.00
2022-12-15T07:33:56.161Z,12.63
2022-12-15T07:36:23.979Z,12.27
2022-12-15T07:41:20.741Z,13.53
2022-12-15T07:43:48.874Z,12.90
2022-12-15T07:46:18.430Z,13.30
2022-12-15T07:48:50.344Z,12.07
2022-12-15T07:51:21.938Z,13.17
2022-12-15T07:53:51.159Z,15.57
2022-12-15T07:56:20.838Z,11.87
2022-12-15T07:58:50.782Z,13.37
2022-12-15T08:01:18.720Z,15.57
2022-12-15T08:03:46.750Z,12.60
2022-12-15T08:06:15.480Z,13.07
2022-12-15T08:08:50.732Z,12.83
2022-12-15T08:11:22.680Z,15.10
2022-12-15T08:14:10.527Z,13.60
2022-12-15T08:16:40.295Z,14.73
2022-12-15T08:19:13.914Z,15.30
2022-12-15T08:21:43.075Z,15.47
2022-12-15T08:24:11.103Z,16.63
2022-12-15T08:26:40.879Z,17.83
2022-12-15T08:29:48.990Z,16.90
2022-12-15T08:32:00.477Z,17.13
2022-12-15T08:34:28.169Z,18.73
2022-12-15T08:36:55.860Z,17.58
2022-12-15T08:39:23.802Z,19.17
2022-12-15T08:41:51.530Z,18.20
2022-12-15T08:44:19.152Z,12.88
2022-12-15T08:46:47.092Z,16.95
2022-12-15T08:51:50.673Z,15.27
2022-12-15T08:54:19.677Z,20.50
2022-12-15T08:56:48.463Z,17.13
2022-12-15T08:59:16.614Z,16.60
2022-12-15T09:01:44.417Z,18.00
2022-12-15T09:04:12.266Z,29.93
2022-12-15T09:06:40.091Z,30.75
2022-12-15T09:09:10.462Z,29.23
2022-12-15T09:11:38.198Z,29.47
2022-12-15T09:14:07.137Z,29.25
2022-12-15T09:16:35.141Z,29.40
2022-12-15T09:21:32.665Z,29.65
2022-12-15T09:24:02.275Z,30.37
2022-12-15T09:26:32.928Z,26.13
2022-12-15T09:29:02.195Z,26.50
2022-12-15T09:31:32.870Z,26.60
2022-12-15T09:34:01.489Z,29.50
2022-12-15T09:36:32.558Z,28.80
2022-12-15T09:39:02.451Z,30.87
2022-12-15T09:41:35.323Z,27.67
2022-12-15T09:44:11.094Z,28.97
2022-12-15T09:47:05.981Z,29.10
2022-12-15T09:49:57.254Z,29.27
2022-12-15T09:52:36.058Z,28.93
2022-12-15T09:55:22.316Z,28.83
2022-12-15T09:58:10.646Z,27.97
2022-12-15T10:00:52.929Z,29.33
2022-12-15T10:03:34.057Z,28.43
2022-12-15T10:06:22.225Z,27.63
2022-12-15T10:08:54.319Z,27.40
2022-12-15T10:11:39.180Z,25.07
2022-12-15T10:14:32.802Z,26.33
2022-12-15T10:17:07.923Z,23.87
2022-12-15T10:20:00.933Z,23.47
2022-12-15T10:22:38.113Z,18.43
2022-12-15T10:25:19.708Z,24.23
2022-12-15T10:28:09.959Z,24.07
2022-12-15T10:30:59.578Z,23.57
2022-12-15T10:33:40.217Z,18.13
2022-12-15T10:36:16.462Z,20.87
2022-12-15T10:38:50.321Z,21.63
2022-12-15T10:41:26.369Z,20.93
2022-12-15T10:43:55.313Z,22.13
2022-12-15T10:46:29.171Z,11.87
2022-12-15T10:49:07.818Z,7.73
2022-12-15T10:51:43.124Z,4.00
2022-12-15T10:54:14.856Z,6.13
2022-12-15T10:56:50.242Z,6.13
2022-12-15T10:59:26.357Z,7.90
2022-12-15T11:01:55.151Z,8.27
2022-12-15T11:04:32.545Z,8.20
2022-12-15T11:07:03.442Z,8.30
2022-12-15T11:09:37.847Z,4.77
2022-12-15T11:12:39.468Z,6.13
2022-12-15T11:15:23.234Z,4.53
2022-12-15T11:18:11.679Z,6.33
2022-12-15T11:21:01.549Z,5.93
2022-12-15T11:23:52.222Z,5.90
2022-12-15T11:26:48.873Z,6.27
2022-12-15T11:29:41.853Z,6.30
2022-12-15T11:32:13.192Z,5.27
2022-12-15T11:34:46.318Z,2.73
2022-12-15T11:37:34.212Z,2.23
2022-12-15T11:40:30.921Z,6.00
2022-12-15T11:43:11.265Z,5.20
2022-12-15T11:46:17.460Z,4.83
2022-12-15T11:49:13.144Z,6.03
2022-12-15T11:52:03.129Z,4.90
2022-12-15T11:54:53.453Z,4.60
2022-12-15T11:57:27.217Z,2.27
2022-12-15T12:00:20.116Z,2.70
2022-12-15T12:03:03.632Z,5.00
2022-12-15T12:05:56.374Z,4.07
2022-12-15T12:08:33.714Z,2.80
2022-12-15T12:11:12.951Z,4.10
2022-12-15T12:14:14.575Z,4.53
2022-12-15T12:17:03.790Z,3.70
2022-12-15T12:19:59.600Z,3.00
2022-12-15T12:22:36.485Z,4.03
2022-12-15T12:25:10.173Z,3.30
2022-12-15T12:27:48.797Z,3.70
2022-12-15T12:30:21.666Z,2.27
2022-12-15T12:32:50.538Z,2.70
2022-12-15T12:35:38.345Z,3.43
2022-12-15T12:38:09.836Z,2.15
2022-12-15T12:40:40.576Z,2.47
2022-12-15T12:43:14.032Z,3.90
2022-12-15T12:45:50.247Z,4.23
2022-12-15T12:48:33.877Z,3.27
2022-12-15T12:51:24.580Z,2.63
2022-12-15T12:53:53.144Z,4.03
2022-12-15T12:56:33.029Z,3.20
2022-12-15T12:59:01.235Z,3.43
2022-12-15T13:04:07.739Z,2.03
2022-12-15T13:06:35.626Z,2.93
2022-12-15T13:09:21.435Z,3.00
2022-12-15T13:11:53.099Z,3.30
2022-12-15T13:14:31.360Z,2.77
2022-12-15T13:17:25.966Z,2.27
2022-12-15T13:20:03.167Z,2.00
2022-12-15T13:22:38.038Z,2.50
2022-12-15T13:25:27.650Z,2.33
2022-12-15T13:28:00.653Z,1.87
2022-12-15T13:30:28.598Z,1.97
2022-12-15T13:33:16.591Z,1.63
2022-12-15T13:35:44.527Z,2.57
2022-12-15T13:38:20.879Z,2.15
2022-12-15T13:40:50.424Z,3.67
2022-12-15T13:43:27.648Z,2.13
2022-12-15T13:46:11.832Z,2.92
2022-12-15T13:48:54.279Z,3.10
2022-12-15T13:51:35.317Z,3.63
2022-12-15T13:54:15.555Z,3.53
2022-12-15T13:57:01.262Z,3.53
2022-12-15T13:59:43.261Z,3.23
2022-12-15T14:02:32.126Z,3.67
2022-12-15T14:05:23.131Z,2.57
2022-12-15T14:07:55.019Z,4.70
2022-12-15T14:10:37.626Z,4.70
2022-12-15T14:13:17.506Z,3.33
2022-12-15T14:15:58.869Z,5.17
2022-12-15T14:18:36.630Z,4.10
2022-12-15T14:21:23.020Z,6.03
2022-12-15T14:26:38.410Z,5.75
2022-12-15T14:29:06.719Z,4.72
2022-12-15T14:31:37.769Z,4.13
2022-12-15T14:34:21.905Z,4.30
2022-12-15T14:36:50.886Z,3.80
2022-12-15T14:39:43.597Z,4.00
2022-12-15T14:42:27.975Z,3.83
2022-12-15T14:44:58.383Z,5.57
2022-12-15T14:47:30.978Z,4.60
2022-12-15T14:50:01.499Z,3.27
2022-12-15T14:52:37.130Z,4.53
2022-12-15T14:55:37.035Z,5.67
2022-12-15T14:58:23.751Z,9.20
2022-12-15T15:00:54.425Z,4.03
2022-12-15T15:03:27.659Z,7.97
2022-12-15T15:06:00.132Z,7.53
2022-12-15T15:08:35.703Z,6.17
2022-12-15T15:11:18.459Z,4.60
2022-12-15T15:13:47.118Z,8.47
2022-12-15T15:16:18.329Z,8.63
2022-12-15T15:18:51.430Z,8.90
2022-12-15T15:21:23.964Z,9.87
2022-12-15T15:24:00.266Z,8.73
2022-12-15T15:26:29.019Z,6.23
2022-12-15T15:28:57.467Z,5.50
2022-12-15T15:31:26.084Z,4.83
2022-12-15T15:33:57.219Z,6.77
2022-12-15T15:38:46.997Z,3.73
2022-12-15T15:41:19.962Z,5.50
2022-12-15T15:43:49.380Z,7.90
2022-12-15T15:46:29.463Z,8.40
2022-12-15T15:49:04.082Z,8.43
2022-12-15T15:51:33.184Z,7.67
2022-12-15T15:54:05.702Z,6.13
2022-12-15T15:56:33.601Z,4.80
2022-12-15T15:59:11.786Z,3.55
2022-12-15T16:01:39.919Z,4.13
2022-12-15T16:04:08.063Z,3.70
2022-12-15T16:06:36.422Z,8.10
2022-12-15T16:09:07.230Z,8.23
2022-12-15T16:11:35.398Z,5.50
2022-12-15T16:14:03.915Z,5.97
2022-12-15T16:16:33.293Z,9.93
2022-12-15T16:19:00.861Z,11.03
2022-12-15T16:21:28.875Z,9.35
2022-12-15T16:23:58.183Z,8.03
2022-12-15T16:26:37.658Z,7.73
2022-12-15T16:29:16.726Z,9.33
2022-12-15T16:31:45.869Z,10.47
2022-12-15T16:34:16.750Z,6.83
2022-12-15T16:36:45.585Z,6.30
2022-12-15T16:39:29.172Z,10.37
2022-12-15T16:41:57.884Z,9.17
2022-12-15T16:44:27.200Z,4.90
2022-12-15T16:46:55.428Z,9.37
2022-12-15T16:49:23.094Z,10.87
2022-12-15T16:51:53.344Z,10.50
2022-12-15T16:54:25.355Z,13.37
2022-12-15T16:56:58.076Z,14.23
2022-12-15T16:59:34.290Z,12.27
2022-12-15T17:02:28.567Z,11.45
2022-12-15T17:04:56.712Z,11.63
2022-12-15T17:07:27.752Z,13.30
2022-12-15T17:09:56.222Z,11.80
2022-12-15T17:12:24.046Z,12.03
2022-12-15T17:14:51.968Z,11.63
2022-12-15T17:17:19.993Z,12.30
2022-12-15T17:22:37.472Z,15.03
2022-12-15T17:25:05.624Z,16.08
2022-12-15T17:27:33.480Z,14.37
2022-12-15T17:30:01.980Z,13.68
2022-12-15T17:32:29.684Z,12.47
2022-12-15T17:34:57.420Z,11.80
2022-12-15T17:37:28.021Z,16.23
2022-12-15T17:39:58.301Z,14.00
2022-12-15T17:42:26.098Z,10.55
2022-12-15T17:44:54.138Z,14.07
2022-12-15T17:49:53.901Z,16.10
2022-12-15T17:52:27.443Z,15.40
2022-12-15T17:54:56.058Z,15.97
2022-12-15T17:57:25.657Z,16.50
2022-12-15T17:59:53.572Z,15.83
2022-12-15T18:02:21.310Z,15.73
2022-12-15T18:04:49.220Z,16.90
2022-12-15T18:07:22.653Z,19.88
2022-12-15T18:09:52.488Z,19.27
2022-12-15T18:12:22.799Z,16.60
2022-12-15T18:14:50.811Z,16.97
2022-12-15T18:17:18.568Z,16.50
2022-12-15T18:19:46.606Z,17.98
2022-12-15T18:22:22.468Z,17.90
2022-12-15T18:24:52.675Z,16.17
2022-12-15T18:27:25.162Z,17.13
2022-12-15T18:29:53.648Z,17.00
2022-12-15T18:32:25.492Z,18.00
2022-12-15T18:34:54.038Z,17.90
2022-12-15T18:37:25.202Z,16.83
2022-12-15T18:39:53.364Z,15.60
2022-12-15T18:42:23.796Z,16.27
2022-12-15T18:44:52.978Z,16.67
2022-12-15T18:47:23.561Z,17.37
2022-12-15T18:49:51.603Z,16.20
2022-12-15T18:52:22.454Z,17.00
2022-12-15T18:54:51.860Z,17.33
2022-12-15T18:57:28.371Z,17.60
2022-12-15T19:00:02.023Z,20.57
2022-12-15T19:02:30.464Z,18.13
2022-12-15T19:04:58.484Z,16.73
2022-12-15T19:07:26.132Z,16.92
2022-12-15T19:09:53.993Z,17.25
2022-12-15T19:12:22.019Z,16.83
2022-12-15T19:17:40.374Z,28.60
2022-12-15T19:20:34.970Z,27.43
2022-12-15T19:23:02.761Z,27.47
2022-12-15T19:25:31.902Z,26.85
2022-12-15T19:28:00.980Z,27.13
2022-12-15T19:30:31.266Z,26.43
2022-12-15T19:32:59.171Z,25.60
2022-12-15T19:35:28.435Z,23.60
2022-12-15T19:38:00.744Z,22.40
2022-12-15T19:40:31.418Z,20.90
2022-12-15T19:43:00.571Z,21.37
2022-12-15T19:45:31.910Z,20.70
2022-12-15T19:48:00.805Z,22.70
2022-12-15T19:50:38.887Z,21.70
2022-12-15T19:53:30.172Z,26.27
2022-12-15T19:56:01.403Z,26.87
2022-12-15T19:58:35.258Z,26.00
2022-12-15T20:01:07.197Z,23.33
2022-12-15T20:03:36.618Z,25.97
2022-12-15T20:06:14.403Z,25.67
2022-12-15T20:08:45.860Z,25.77
2022-12-15T20:11:21.399Z,23.10
2022-12-15T20:13:50.585Z,23.67
2022-12-15T20:16:19.447Z,22.17
2022-12-15T20:18:54.662Z,22.07
2022-12-15T20:21:26.689Z,22.77
2022-12-15T20:24:27.409Z,23.73
2022-12-15T20:26:56.472Z,24.17
2022-12-15T20:31:54.415Z,27.37
2022-12-15T20:34:23.451Z,28.47
2022-12-15T20:36:51.950Z,26.03
2022-12-15T20:39:29.449Z,24.70
2022-12-15T20:41:58.302Z,20.53
2022-12-15T20:44:26.011Z,22.73
2022-12-15T20:46:54.850Z,24.40
2022-12-15T20:49:23.193Z,23.50
2022-12-15T20:51:52.026Z,23.67
2022-12-15T20:54:22.588Z,22.90
2022-12-15T20:56:50.933Z,23.97
2022-12-15T20:59:19.108Z,25.27
2022-12-15T21:01:47.220Z,31.60
2022-12-15T21:04:27.895Z,28.40
2022-12-15T21:06:56.269Z,32.67
2022-12-15T21:09:24.582Z,32.87
2022-12-15T21:11:54.520Z,30.77
2022-12-15T21:14:23.667Z,27.13
2022-12-15T21:16:51.776Z,26.03
2022-12-15T21:21:54.891Z,25.33
2022-12-15T21:24:25.484Z,25.90
2022-12-15T21:26:53.813Z,27.27
2022-12-15T21:29:27.928Z,23.83
2022-12-15T21:31:55.593Z,25.47
2022-12-15T21:34:23.764Z,26.83
2022-12-15T21:36:54.829Z,28.03
2022-12-15T21:39:29.810Z,28.13
2022-12-15T21:42:08.474Z,25.73
2022-12-15T21:44:36.107Z,24.07
2022-12-15T21:47:22.808Z,21.80
2022-12-15T21:49:50.675Z,27.15
2022-12-15T21:52:19.715Z,23.08
2022-12-15T21:54:47.724Z,24.63
2022-12-15T21:59:43.043Z,24.50
2022-12-15T22:02:23.041Z,24.45
2022-12-15T22:04:51.962Z,26.27
2022-12-15T22:07:19.821Z,26.00
2022-12-15T22:09:47.838Z,27.35
2022-12-15T22:14:47.955Z,24.73
2022-12-15T22:19:47.809Z,24.63
2022-12-15T22:22:16.610Z,23.60
2022-12-15T22:24:44.927Z,24.97
2022-12-15T22:27:20.919Z,25.33
2022-12-15T22:29:52.010Z,25.10
2022-12-15T22:32:19.574Z,24.43
2022-12-15T22:34:47.531Z,26.02
2022-12-15T22:37:15.813Z,26.30
2022-12-15T22:39:43.575Z,26.93
2022-12-15T22:42:16.340Z,28.17
2022-12-15T22:44:45.043Z,25.40
2022-12-15T22:47:12.684Z,27.67
2022-12-15T22:49:41.213Z,27.63
2022-12-15T22:52:22.793Z,26.93
2022-12-15T22:54:50.846Z,23.27
2022-12-15T22:57:22.754Z,25.80
2022-12-15T23:00:03.531Z,25.47
2022-12-15T23:02:36.124Z,25.27
2022-12-15T23:05:05.719Z,26.33
2022-12-15T23:07:34.480Z,26.17
2022-12-15T23:10:22.194Z,26.43
2022-12-15T23:12:54.636Z,26.77
2022-12-15T23:15:45.659Z,25.60
2022-12-15T23:18:13.724Z,27.00
2022-12-15T23:25:38.100Z,23.47
2022-12-15T23:28:05.805Z,26.53
2022-12-15T23:30:33.629Z,27.45
2022-12-15T23:33:01.173Z,29.48
2022-12-15T23:35:28.739Z,29.83
2022-12-15T23:37:57.874Z,23.30
2022-12-15T23:40:25.497Z,25.67
2022-12-15T23:42:53.795Z,25.73
2022-12-15T23:45:21.605Z,22.60
2022-12-15T23:47:49.219Z,21.75
2022-12-15T23:50:17.207Z,28.00
2022-12-15T23:55:12.478Z,26.02
2022-12-15T23:57:40.150Z,23.58
